Time;durP1;ratioP1;P1;durP2;ratioP2;P2;SDS_P1;SDS_P2;PMS_P1;PMS_P2;Temp;Humidity;BMP_temperature;BMP_pressure;BME280_temperature;BME280_humidity;BME280_pressure;Samples;Min_cycle;Max_cycle;Signal;HPM_P1;HPM_P2
2022/03/18 00:00:39;;;;;;;61.45;38.88;;;8.80;99.90;;;;;;5053396;28;20049;-66
2022/03/18 00:03:07;;;;;;;58.00;40.10;;;8.80;99.90;;;;;;5059910;28;20464;-67
2022/03/18 00:05:35;;;;;;;56.50;36.58;;;8.80;99.90;;;;;;5040418;28;20045;-67
2022/03/18 00:08:04;;;;;;;57.30;39.03;;;8.80;99.90;;;;;;5051403;28;20043;-66
2022/03/18 00:10:33;;;;;;;58.60;37.92;;;8.80;99.90;;;;;;5050940;28;20128;-66
2022/03/18 00:13:00;;;;;;;57.45;37.70;;;8.80;99.90;;;;;;5052876;28;20133;-66
2022/03/18 00:15:27;;;;;;;62.95;40.45;;;8.80;99.90;;;;;;5056355;28;20094;-66
2022/03/18 00:17:56;;;;;;;61.65;40.22;;;8.80;99.90;;;;;;5053188;28;20033;-66
2022/03/18 00:20:24;;;;;;;59.65;39.10;;;8.80;99.90;;;;;;5056620;28;20470;-65
2022/03/18 00:22:52;;;;;;;62.58;39.85;;;8.80;99.90;;;;;;5039478;28;20118;-65
2022/03/18 00:25:20;;;;;;;63.28;40.03;;;8.80;99.90;;;;;;5054633;28;20041;-65
2022/03/18 00:27:47;;;;;;;60.80;38.33;;;8.70;99.90;;;;;;5053876;28;20496;-66
2022/03/18 00:30:17;;;;;;;63.22;40.60;;;8.80;99.90;;;;;;5053261;28;20510;-65
2022/03/18 00:32:46;;;;;;;68.13;39.88;;;8.70;99.90;;;;;;5058187;28;20556;-66
2022/03/18 00:35:34;;;;;;;61.92;38.60;;;8.70;99.90;;;;;;5053347;28;20471;-66
2022/03/18 00:38:02;;;;;;;67.50;40.33;;;8.70;99.90;;;;;;5058942;28;20076;-65
2022/03/18 00:40:31;;;;;;;76.30;44.20;;;8.70;99.90;;;;;;5062865;28;20436;-65
2022/03/18 00:43:00;;;;;;;61.40;38.47;;;8.60;99.90;;;;;;5069398;28;20465;-66
2022/03/18 00:45:29;;;;;;;62.70;39.22;;;8.60;99.90;;;;;;5069656;28;20056;-65
2022/03/18 00:53:29;;;;;;;62.85;39.30;;;8.60;99.90;;;;;;5037714;28;20044;-66
2022/03/18 00:55:57;;;;;;;63.40;38.15;;;8.60;99.90;;;;;;5048818;28;20128;-66
2022/03/18 00:58:25;;;;;;;59.97;36.58;;;8.60;99.90;;;;;;5060249;28;20573;-66
2022/03/18 01:00:52;;;;;;;63.88;37.95;;;8.60;99.90;;;;;;5058373;28;20049;-66
2022/03/18 01:03:20;;;;;;;66.28;38.85;;;8.50;99.90;;;;;;5055947;28;20496;-66
2022/03/18 01:05:47;;;;;;;60.10;36.95;;;8.50;99.90;;;;;;5051004;28;20494;-66
2022/03/18 01:08:15;;;;;;;59.38;35.58;;;8.50;99.90;;;;;;5046252;28;20055;-66
2022/03/18 01:10:42;;;;;;;59.30;35.38;;;8.50;99.90;;;;;;5058775;28;20045;-66
2022/03/18 01:13:09;;;;;;;60.03;36.22;;;8.50;99.90;;;;;;5062283;28;20491;-66
2022/03/18 01:15:37;;;;;;;58.60;35.40;;;8.50;99.90;;;;;;5059464;28;20037;-65
2022/03/18 01:18:04;;;;;;;54.25;33.38;;;8.40;99.90;;;;;;5060239;28;20526;-66
2022/03/18 01:20:32;;;;;;;55.78;34.40;;;8.40;99.90;;;;;;5060264;28;20123;-66
2022/03/18 01:23:00;;;;;;;59.90;35.35;;;8.40;99.90;;;;;;5057829;28;20389;-66
2022/03/18 01:25:27;;;;;;;60.20;34.97;;;8.30;99.90;;;;;;5063465;28;20062;-66
2022/03/18 01:27:55;;;;;;;56.47;34.90;;;8.30;99.90;;;;;;5049372;28;20069;-66
2022/03/18 01:30:22;;;;;;;53.80;33.17;;;8.30;99.90;;;;;;5055532;28;20049;-65
2022/03/18 01:32:50;;;;;;;60.28;34.42;;;8.30;99.90;;;;;;5064555;28;20499;-64
2022/03/18 01:35:17;;;;;;;53.85;32.28;;;8.30;99.90;;;;;;5068989;28;20041;-64
2022/03/18 01:37:45;;;;;;;57.78;34.83;;;8.30;99.90;;;;;;5064713;28;20055;-66
2022/03/18 01:40:12;;;;;;;59.05;34.47;;;8.30;99.90;;;;;;5057215;28;20047;-66
2022/03/18 01:42:40;;;;;;;55.50;33.00;;;8.20;99.90;;;;;;5065266;28;20056;-66
2022/03/18 01:45:08;;;;;;;60.97;34.40;;;8.10;99.90;;;;;;5063317;28;20087;-66
2022/03/18 01:47:35;;;;;;;57.45;32.85;;;8.10;99.90;;;;;;5056380;28;20127;-66
2022/03/18 01:50:03;;;;;;;57.33;34.35;;;8.10;99.90;;;;;;5067236;28;20610;-65
2022/03/18 01:52:30;;;;;;;59.65;33.22;;;8.20;99.90;;;;;;5054234;28;20117;-66
2022/03/18 01:54:57;;;;;;;59.28;33.08;;;8.10;99.90;;;;;;5052261;28;20040;-66
2022/03/18 01:57:26;;;;;;;62.80;35.05;;;8.10;99.90;;;;;;5048413;28;20048;-66
2022/03/18 01:59:57;;;;;;;55.65;32.97;;;8.10;99.90;;;;;;5057533;28;20072;-66
2022/03/18 02:02:25;;;;;;;62.70;35.38;;;8.10;99.90;;;;;;5046276;28;20044;-66
2022/03/18 02:04:53;;;;;;;59.90;33.45;;;8.10;99.90;;;;;;5064751;28;20044;-66
2022/03/18 02:07:20;;;;;;;58.22;33.20;;;8.10;99.90;;;;;;5059390;28;20049;-66
2022/03/18 02:09:47;;;;;;;58.83;34.80;;;8.10;99.90;;;;;;5065774;28;20040;-66
2022/03/18 02:12:15;;;;;;;64.18;33.30;;;8.00;99.90;;;;;;5048942;28;20049;-67
2022/03/18 02:14:44;;;;;;;55.78;33.05;;;8.10;99.90;;;;;;5063080;28;20043;-67
2022/03/18 02:17:14;;;;;;;55.83;32.08;;;8.10;99.90;;;;;;5061126;28;20041;-66
2022/03/18 02:19:42;;;;;;;58.13;33.47;;;8.10;99.90;;;;;;5062747;28;20132;-66
2022/03/18 02:22:15;;;;;;;54.30;31.10;;;8.10;99.90;;;;;;5056415;28;20060;-66
2022/03/18 02:24:45;;;;;;;57.05;33.05;;;8.10;99.90;;;;;;5054800;28;20412;-66
2022/03/18 02:27:13;;;;;;;53.60;32.05;;;8.10;99.90;;;;;;5058378;28;20063;-66
2022/03/18 02:29:41;;;;;;;61.53;34.67;;;8.10;99.90;;;;;;5066784;28;20052;-66
2022/03/18 02:32:09;;;;;;;60.88;33.28;;;8.10;99.90;;;;;;5060596;28;20049;-66
2022/03/18 02:34:38;;;;;;;55.05;32.90;;;8.10;99.90;;;;;;5059519;28;20041;-66
2022/03/18 02:37:07;;;;;;;57.58;32.60;;;8.00;99.90;;;;;;5056617;28;20715;-67
2022/03/18 02:39:34;;;;;;;55.97;32.85;;;8.00;99.90;;;;;;5061107;28;20033;-66
2022/03/18 02:42:02;;;;;;;54.80;32.00;;;8.00;99.90;;;;;;5055745;28;20037;-66
2022/03/18 02:44:29;;;;;;;54.10;32.45;;;7.90;99.90;;;;;;5047495;28;20064;-66
2022/03/18 02:46:58;;;;;;;55.78;31.90;;;7.90;99.90;;;;;;5052973;28;20041;-67
2022/03/18 02:49:25;;;;;;;54.67;30.75;;;8.00;99.90;;;;;;5051405;28;20503;-66
2022/03/18 02:51:53;;;;;;;55.85;32.65;;;7.90;99.90;;;;;;5053887;28;20427;-66
2022/03/18 02:54:20;;;;;;;51.35;29.95;;;7.90;99.90;;;;;;5066945;28;20392;-66
2022/03/18 02:56:49;;;;;;;52.72;30.50;;;7.90;99.90;;;;;;5052034;28;20411;-66
2022/03/18 02:59:16;;;;;;;49.75;28.90;;;7.90;99.90;;;;;;5049600;28;20055;-65
2022/03/18 03:01:44;;;;;;;49.85;29.42;;;7.80;99.90;;;;;;5058886;28;20040;-66
2022/03/18 03:04:13;;;;;;;50.80;29.55;;;7.90;99.90;;;;;;5059685;28;20121;-65
2022/03/18 03:09:26;;;;;;;47.05;26.85;;;7.80;99.90;;;;;;5044711;28;20040;-66
2022/03/18 03:11:54;;;;;;;42.70;25.60;;;7.80;99.90;;;;;;5054330;28;20053;-65
2022/03/18 03:14:21;;;;;;;46.75;27.35;;;7.80;99.90;;;;;;5047036;28;20041;-65
2022/03/18 03:16:49;;;;;;;51.08;28.30;;;7.80;99.90;;;;;;5060806;28;20542;-65
2022/03/18 03:19:16;;;;;;;47.35;27.13;;;7.80;99.90;;;;;;5059755;28;20036;-66
2022/03/18 03:21:43;;;;;;;46.10;26.98;;;7.80;99.90;;;;;;5058018;28;20115;-64
2022/03/18 03:24:11;;;;;;;47.17;26.20;;;7.80;99.90;;;;;;5047290;28;20052;-65
2022/03/18 03:26:38;;;;;;;42.42;25.98;;;7.70;99.90;;;;;;5050644;28;20042;-66
2022/03/18 03:29:05;;;;;;;46.40;26.38;;;7.70;99.90;;;;;;5054605;28;20044;-64
2022/03/18 03:31:32;;;;;;;46.67;27.00;;;7.80;99.90;;;;;;5065706;28;20051;-66
2022/03/18 03:34:00;;;;;;;48.67;27.85;;;7.70;99.90;;;;;;5065895;28;20078;-65
2022/03/18 03:36:28;;;;;;;47.05;26.02;;;7.70;99.90;;;;;;5065908;28;20045;-66
2022/03/18 03:38:55;;;;;;;45.60;25.73;;;7.60;99.90;;;;;;5061674;28;20492;-66
2022/03/18 03:41:23;;;;;;;48.78;26.63;;;7.60;99.90;;;;;;5067873;28;20063;-66
2022/03/18 03:43:50;;;;;;;45.78;26.70;;;7.60;99.90;;;;;;5073384;28;20484;-66
2022/03/18 03:46:17;;;;;;;48.75;26.98;;;7.50;99.90;;;;;;5065845;28;20044;-66
2022/03/18 03:48:45;;;;;;;43.75;26.25;;;7.50;99.90;;;;;;5073173;28;20056;-66
2022/03/18 03:51:12;;;;;;;43.30;24.85;;;7.50;99.90;;;;;;5071482;28;20413;-66
2022/03/18 03:53:39;;;;;;;46.65;26.65;;;7.50;99.90;;;;;;5072901;28;20044;-66
2022/03/18 03:56:06;;;;;;;43.83;25.67;;;7.50;99.90;;;;;;5056317;28;20683;-67
2022/03/18 03:58:34;;;;;;;50.47;27.73;;;7.40;99.90;;;;;;5051522;28;20120;-66
2022/03/18 04:01:01;;;;;;;46.65;26.45;;;7.40;99.90;;;;;;5047130;28;20048;-66
2022/03/18 04:03:28;;;;;;;45.28;25.27;;;7.40;99.90;;;;;;5060596;28;20045;-66
2022/03/18 04:05:56;;;;;;;50.40;27.20;;;7.40;99.90;;;;;;5063338;28;20208;-65
2022/03/18 04:08:23;;;;;;;47.13;27.55;;;7.40;99.90;;;;;;5061712;28;20095;-66
2022/03/18 04:10:50;;;;;;;45.17;26.25;;;7.40;99.90;;;;;;5060984;28;20036;-66
2022/03/18 04:13:17;;;;;;;47.17;27.25;;;7.40;99.90;;;;;;5060721;28;20086;-66
2022/03/18 04:15:45;;;;;;;44.05;25.80;;;7.30;99.90;;;;;;5055115;28;20416;-65
2022/03/18 04:18:12;;;;;;;49.75;27.35;;;7.30;99.90;;;;;;5069885;28;20040;-66
2022/03/18 04:20:40;;;;;;;48.88;27.63;;;7.30;99.90;;;;;;5053797;28;20049;-66
2022/03/18 04:23:07;;;;;;;51.83;28.75;;;7.20;99.90;;;;;;5046361;28;20071;-66
2022/03/18 04:25:34;;;;;;;49.40;28.52;;;7.20;99.90;;;;;;5056007;28;20044;-66
2022/03/18 04:28:01;;;;;;;58.20;29.88;;;7.20;99.90;;;;;;5055042;28;20045;-66
2022/03/18 04:30:29;;;;;;;50.05;27.20;;;7.20;99.90;;;;;;5052637;28;20036;-66
2022/03/18 04:32:56;;;;;;;52.08;27.55;;;7.10;99.90;;;;;;5046142;28;20118;-66
2022/03/18 04:35:23;;;;;;;52.88;28.27;;;7.20;99.90;;;;;;5054262;28;20049;-66
2022/03/18 04:37:51;;;;;;;48.75;27.23;;;7.10;99.90;;;;;;5057257;28;20056;-65
2022/03/18 04:40:18;;;;;;;55.55;29.25;;;7.10;99.90;;;;;;5053861;28;20052;-64
2022/03/18 04:42:45;;;;;;;54.22;27.75;;;7.10;99.90;;;;;;5059241;28;20044;-66
2022/03/18 04:45:13;;;;;;;50.45;28.85;;;7.10;99.90;;;;;;5055921;28;20496;-66
2022/03/18 04:47:40;;;;;;;52.05;29.08;;;7.10;99.90;;;;;;5057325;28;20059;-66
2022/03/18 04:50:09;;;;;;;52.33;28.65;;;7.10;99.90;;;;;;5054859;28;20065;-65
2022/03/18 04:52:37;;;;;;;50.75;27.17;;;7.10;99.90;;;;;;5059419;28;20140;-65
2022/03/18 04:55:05;;;;;;;48.60;27.50;;;7.20;99.90;;;;;;5046542;28;20464;-65
2022/03/18 04:57:33;;;;;;;43.92;24.67;;;7.20;99.90;;;;;;5062807;28;20040;-66
2022/03/18 05:00:00;;;;;;;45.67;24.45;;;7.20;99.90;;;;;;5046238;28;20041;-66
2022/03/18 05:02:28;;;;;;;43.28;24.95;;;7.20;99.90;;;;;;5058948;28;20040;-65
2022/03/18 05:04:56;;;;;;;40.33;23.77;;;7.20;99.90;;;;;;5054298;28;20049;-66
2022/03/18 05:07:24;;;;;;;38.28;22.08;;;7.20;99.90;;;;;;5044680;28;20041;-67
2022/03/18 05:09:54;;;;;;;39.60;23.85;;;7.10;99.90;;;;;;5055039;28;20090;-66
2022/03/18 05:12:22;;;;;;;42.08;24.02;;;7.10;99.90;;;;;;5051694;28;20055;-66
2022/03/18 05:14:53;;;;;;;41.28;23.52;;;7.10;99.90;;;;;;5049955;28;20114;-66
2022/03/18 05:17:20;;;;;;;40.08;22.95;;;7.10;99.90;;;;;;5065187;28;20508;-65
2022/03/18 05:19:47;;;;;;;44.50;23.80;;;7.10;99.90;;;;;;5060753;28;20044;-66
2022/03/18 05:22:15;;;;;;;42.08;23.65;;;7.00;99.90;;;;;;5043436;28;20053;-66
2022/03/18 05:24:42;;;;;;;41.58;22.75;;;7.10;99.90;;;;;;5054749;28;20048;-66
2022/03/18 05:27:09;;;;;;;44.65;25.48;;;7.00;99.90;;;;;;5058857;28;20040;-66
2022/03/18 05:29:36;;;;;;;44.13;25.65;;;7.00;99.90;;;;;;5058124;28;20499;-64
2022/03/18 05:32:04;;;;;;;45.60;26.50;;;6.90;99.90;;;;;;5057072;28;20086;-65
2022/03/18 05:34:32;;;;;;;45.15;23.65;;;7.00;99.90;;;;;;5059915;28;20313;-65
2022/03/18 05:36:59;;;;;;;44.30;24.17;;;6.90;99.90;;;;;;5064330;28;20056;-66
2022/03/18 05:39:27;;;;;;;38.85;22.15;;;6.90;99.90;;;;;;5055994;28;20041;-66
2022/03/18 05:41:54;;;;;;;37.90;21.40;;;6.90;99.90;;;;;;5053810;28;20064;-66
2022/03/18 05:44:21;;;;;;;38.75;21.20;;;6.90;99.90;;;;;;5056003;28;20491;-65
2022/03/18 05:46:49;;;;;;;39.85;21.13;;;6.90;99.90;;;;;;5053617;28;20147;-66
2022/03/18 05:49:18;;;;;;;35.60;21.23;;;7.00;99.90;;;;;;5052705;28;20051;-66
2022/03/18 05:51:46;;;;;;;38.42;21.90;;;7.00;99.90;;;;;;5048539;28;20048;-65
2022/03/18 05:54:14;;;;;;;34.20;19.88;;;7.00;99.90;;;;;;5053820;28;20533;-66
2022/03/18 05:56:54;;;;;;;38.13;20.35;;;7.00;99.90;;;;;;5049541;28;20581;-66
2022/03/18 05:59:26;;;;;;;37.13;20.90;;;7.10;99.90;;;;;;5053834;28;20040;-65
2022/03/18 06:01:57;;;;;;;37.47;20.98;;;7.10;99.90;;;;;;5060090;28;20041;-65
2022/03/18 06:04:27;;;;;;;33.35;19.50;;;7.10;99.90;;;;;;5061210;28;20147;-65
2022/03/18 06:06:55;;;;;;;33.38;19.90;;;7.10;99.90;;;;;;5060754;28;20380;-66
2022/03/18 06:12:09;;;;;;;35.20;19.70;;;7.20;99.90;;;;;;5060927;28;20064;-65
2022/03/18 06:14:36;;;;;;;34.13;19.73;;;7.20;99.90;;;;;;5059206;28;20040;-66
2022/03/18 06:17:05;;;;;;;31.02;19.27;;;7.30;99.90;;;;;;5056657;28;20415;-65
2022/03/18 06:19:33;;;;;;;33.38;19.25;;;7.30;99.90;;;;;;5061014;28;21126;-63
2022/03/18 06:22:01;;;;;;;36.53;21.17;;;7.40;99.90;;;;;;5064545;28;20128;-65
2022/03/18 06:24:29;;;;;;;36.35;20.23;;;7.40;99.90;;;;;;5051076;28;20056;-65
2022/03/18 06:26:57;;;;;;;37.13;21.13;;;7.50;99.90;;;;;;5053203;28;20068;-65
2022/03/18 06:29:24;;;;;;;34.42;20.05;;;7.50;99.90;;;;;;5051563;28;20045;-66
2022/03/18 06:31:52;;;;;;;31.45;19.25;;;7.60;99.90;;;;;;5052867;28;20551;-66
2022/03/18 06:34:22;;;;;;;35.35;20.25;;;7.60;99.90;;;;;;5048376;28;20036;-65
2022/03/18 06:36:51;;;;;;;31.65;18.38;;;7.60;99.90;;;;;;5066061;28;20472;-65
2022/03/18 06:39:22;;;;;;;35.20;19.58;;;7.60;99.90;;;;;;5060560;28;20407;-66
2022/03/18 06:41:49;;;;;;;33.38;19.73;;;7.70;99.90;;;;;;5054231;28;20541;-66
2022/03/18 06:44:17;;;;;;;31.73;18.88;;;7.80;99.90;;;;;;5054317;28;20529;-66
2022/03/18 06:46:45;;;;;;;30.58;18.45;;;7.80;99.90;;;;;;5054830;28;20055;-66
2022/03/18 06:49:13;;;;;;;35.35;19.38;;;7.80;99.90;;;;;;5055342;28;20048;-65
2022/03/18 06:51:41;;;;;;;31.20;18.83;;;8.00;99.90;;;;;;5054319;28;20579;-66
2022/03/18 06:54:08;;;;;;;35.03;19.10;;;8.10;99.90;;;;;;5057987;28;20047;-66
2022/03/18 06:56:38;;;;;;;28.48;18.02;;;8.10;99.90;;;;;;5056367;28;20368;-66
2022/03/18 06:59:06;;;;;;;32.30;19.05;;;8.20;99.90;;;;;;5056627;28;20036;-66
2022/03/18 07:01:33;;;;;;;31.25;18.20;;;8.30;99.90;;;;;;5049387;28;20094;-66
2022/03/18 07:04:01;;;;;;;34.35;20.10;;;8.30;99.90;;;;;;5052392;28;20055;-66
2022/03/18 07:06:29;;;;;;;31.88;19.50;;;8.30;99.90;;;;;;5045376;28;20478;-66
2022/03/18 07:08:57;;;;;;;31.85;19.45;;;8.40;99.90;;;;;;5043877;28;20049;-66
2022/03/18 07:11:25;;;;;;;36.30;20.35;;;8.60;99.90;;;;;;5042351;28;20056;-66
2022/03/18 07:13:53;;;;;;;28.83;18.83;;;8.70;99.90;;;;;;5049482;28;20057;-66
2022/03/18 07:19:06;;;;;;;34.17;19.58;;;8.80;99.90;;;;;;5055840;28;20435;-64
2022/03/18 07:21:34;;;;;;;34.83;19.77;;;8.90;99.90;;;;;;5053521;28;20045;-66
2022/03/18 07:24:01;;;;;;;29.63;19.45;;;9.00;99.90;;;;;;5055066;28;20047;-65
2022/03/18 07:26:29;;;;;;;33.97;20.40;;;9.00;99.90;;;;;;5046883;28;20818;-66
2022/03/18 07:28:56;;;;;;;31.27;19.63;;;9.00;99.90;;;;;;5049225;28;20063;-66
2022/03/18 07:31:24;;;;;;;32.05;19.23;;;9.10;99.90;;;;;;5048759;28;20393;-69
2022/03/18 07:33:52;;;;;;;32.00;18.83;;;9.20;99.90;;;;;;5047158;28;20056;-67
2022/03/18 07:36:20;;;;;;;30.45;18.92;;;9.30;99.90;;;;;;5049509;28;20045;-66
2022/03/18 07:38:47;;;;;;;32.75;20.15;;;9.30;99.90;;;;;;5057276;28;20126;-68
2022/03/18 07:41:17;;;;;;;32.67;18.95;;;9.40;99.90;;;;;;5059290;28;20037;-66
2022/03/18 07:43:45;;;;;;;33.47;18.88;;;9.40;99.90;;;;;;5059211;28;20043;-66
2022/03/18 07:46:12;;;;;;;33.05;18.17;;;9.40;99.90;;;;;;5062317;28;20044;-66
2022/03/18 07:48:43;;;;;;;31.95;19.15;;;9.40;99.90;;;;;;5062833;28;20044;-66
2022/03/18 07:51:11;;;;;;;30.60;17.77;;;9.50;99.90;;;;;;5061582;28;20052;-66
2022/03/18 07:53:38;;;;;;;33.50;19.40;;;9.60;99.90;;;;;;5058634;28;20075;-66
2022/03/18 07:56:05;;;;;;;30.38;18.33;;;9.60;99.90;;;;;;5052247;28;20037;-66
2022/03/18 07:58:32;;;;;;;33.38;18.83;;;9.80;99.90;;;;;;5062941;28;20064;-66
2022/03/18 08:01:00;;;;;;;31.23;19.20;;;9.70;99.90;;;;;;5052558;28;20133;-66
2022/03/18 08:03:27;;;;;;;29.35;17.02;;;9.80;99.90;;;;;;5061199;28;20045;-66
2022/03/18 08:05:56;;;;;;;27.70;17.58;;;9.80;99.90;;;;;;5049226;28;20059;-66
2022/03/18 08:08:23;;;;;;;29.08;18.05;;;9.80;99.90;;;;;;5043359;28;20061;-66
2022/03/18 08:10:51;;;;;;;33.13;18.48;;;9.90;99.90;;;;;;5052368;28;20053;-66
2022/03/18 08:13:20;;;;;;;27.67;17.38;;;10.00;99.90;;;;;;5053352;28;20048;-66
2022/03/18 08:15:47;;;;;;;29.10;18.08;;;10.00;99.90;;;;;;5050780;28;20763;-66
2022/03/18 08:18:15;;;;;;;28.38;17.15;;;10.00;99.90;;;;;;5061938;28;20037;-66
2022/03/18 08:20:43;;;;;;;28.63;18.02;;;10.00;99.90;;;;;;5069058;28;20557;-66
2022/03/18 08:23:14;;;;;;;29.52;16.88;;;10.00;99.90;;;;;;5063020;28;20457;-66
2022/03/18 08:25:42;;;;;;;28.58;17.27;;;10.10;99.90;;;;;;5066254;28;20511;-66
2022/03/18 08:28:09;;;;;;;28.13;17.08;;;10.20;99.90;;;;;;5065056;28;20968;-66
2022/03/18 08:30:38;;;;;;;28.30;16.63;;;10.40;99.90;;;;;;5052797;28;20045;-66
2022/03/18 08:33:05;;;;;;;27.90;17.27;;;10.60;99.90;;;;;;5058663;28;20044;-66
2022/03/18 08:35:36;;;;;;;27.77;16.67;;;10.70;99.90;;;;;;5059565;28;20479;-65
2022/03/18 08:38:07;;;;;;;27.38;17.25;;;10.80;99.90;;;;;;5050879;28;20404;-66
2022/03/18 08:40:36;;;;;;;31.48;17.85;;;10.80;99.90;;;;;;5063403;28;20127;-66
2022/03/18 08:43:11;;;;;;;29.50;18.00;;;10.80;99.90;;;;;;5058475;28;20283;-64
2022/03/18 08:45:38;;;;;;;30.77;17.65;;;10.90;99.90;;;;;;5058221;28;20048;-66
2022/03/18 08:48:07;;;;;;;25.13;16.15;;;10.90;99.90;;;;;;5056857;28;20060;-66
2022/03/18 08:50:34;;;;;;;26.92;16.42;;;10.90;99.90;;;;;;5061892;28;20040;-66
2022/03/18 08:53:09;;;;;;;30.25;17.90;;;11.00;99.90;;;;;;5060411;28;20519;-67
2022/03/18 08:55:39;;;;;;;30.30;17.98;;;11.00;99.90;;;;;;5058613;28;20067;-66
2022/03/18 08:58:07;;;;;;;25.95;15.93;;;11.10;99.90;;;;;;5063498;28;20094;-66
2022/03/18 09:00:35;;;;;;;26.77;16.00;;;11.20;99.90;;;;;;5045832;28;20042;-65
2022/03/18 09:03:02;;;;;;;29.45;18.33;;;11.30;99.90;;;;;;5054080;28;20071;-66
2022/03/18 09:05:30;;;;;;;26.13;16.08;;;11.40;99.90;;;;;;5047365;28;20087;-65
2022/03/18 09:07:58;;;;;;;27.83;16.90;;;11.70;99.90;;;;;;5056329;28;20841;-65
2022/03/18 09:10:26;;;;;;;27.23;16.42;;;12.10;99.90;;;;;;5064631;28;20086;-66
2022/03/18 09:12:58;;;;;;;27.13;16.75;;;12.40;99.90;;;;;;5067845;28;20077;-66
2022/03/18 09:15:26;;;;;;;26.88;15.23;;;12.70;99.90;;;;;;5067857;28;20049;-65
2022/03/18 09:17:54;;;;;;;28.95;16.02;;;12.90;99.90;;;;;;5062902;28;20049;-65
2022/03/18 09:20:21;;;;;;;25.45;15.65;;;12.90;99.90;;;;;;5051855;28;20052;-66
2022/03/18 09:22:49;;;;;;;23.63;14.68;;;12.70;99.90;;;;;;5059739;28;20476;-66
2022/03/18 09:25:16;;;;;;;24.15;15.73;;;12.70;99.90;;;;;;5065231;28;20056;-66
2022/03/18 09:27:43;;;;;;;25.02;15.35;;;12.70;99.90;;;;;;5058852;28;20053;-66
2022/03/18 09:30:12;;;;;;;25.52;15.50;;;12.60;99.90;;;;;;5045350;28;20056;-65
2022/03/18 09:32:43;;;;;;;31.17;16.75;;;12.60;99.90;;;;;;5052133;28;20135;-65
2022/03/18 09:35:14;;;;;;;28.70;16.50;;;12.50;99.90;;;;;;5053185;28;20047;-66
2022/03/18 09:37:41;;;;;;;25.63;15.80;;;12.50;99.90;;;;;;5054520;28;20445;-66
2022/03/18 09:40:09;;;;;;;26.48;16.02;;;12.50;99.90;;;;;;5052656;28;20434;-66
2022/03/18 09:43:07;;;;;;;26.67;15.43;;;12.70;99.90;;;;;;5047380;28;20134;-67
2022/03/18 09:45:37;;;;;;;23.75;15.55;;;12.90;99.90;;;;;;5051123;28;20099;-66
2022/03/18 09:48:10;;;;;;;24.77;15.70;;;12.80;99.90;;;;;;5050037;28;20044;-66
2022/03/18 09:50:39;;;;;;;25.63;16.48;;;12.90;99.90;;;;;;5052756;28;20049;-65
2022/03/18 09:53:07;;;;;;;23.63;14.75;;;13.00;99.90;;;;;;5054825;28;20048;-65
2022/03/18 09:55:37;;;;;;;24.92;15.15;;;13.00;99.90;;;;;;5052910;28;20045;-66
2022/03/18 09:58:05;;;;;;;22.77;14.65;;;12.80;99.90;;;;;;5052627;28;20129;-65
2022/03/18 10:00:33;;;;;;;22.17;15.13;;;12.70;99.90;;;;;;5050328;28;20128;-66
2022/03/18 10:03:08;;;;;;;23.92;15.85;;;12.60;99.90;;;;;;5050336;28;20037;-66
2022/03/18 10:05:46;;;;;;;24.70;15.45;;;12.70;99.90;;;;;;5048880;28;20037;-66
2022/03/18 10:08:13;;;;;;;23.95;15.20;;;12.80;99.90;;;;;;5055975;28;20044;-65
2022/03/18 10:10:48;;;;;;;26.38;17.05;;;13.00;99.90;;;;;;5058165;28;20061;-65
2022/03/18 10:13:16;;;;;;;27.52;18.00;;;13.40;99.90;;;;;;5058504;28;20542;-67
2022/03/18 10:15:44;;;;;;;25.60;17.00;;;13.60;99.90;;;;;;5059646;28;20056;-67
2022/03/18 10:18:13;;;;;;;29.27;19.48;;;13.80;99.90;;;;;;5060008;28;20369;-66
2022/03/18 10:20:45;;;;;;;35.90;22.50;;;14.00;99.90;;;;;;5050782;28;20048;-67
2022/03/18 10:23:16;;;;;;;32.97;22.77;;;14.00;99.90;;;;;;5053862;28;20041;-66
2022/03/18 10:25:51;;;;;;;33.28;21.20;;;13.90;99.90;;;;;;5054373;28;20503;-66
2022/03/18 10:28:37;;;;;;;33.08;21.67;;;13.90;99.90;;;;;;5051336;28;20041;-64
2022/03/18 10:31:15;;;;;;;28.15;19.60;;;13.80;99.90;;;;;;5047973;28;20388;-65
2022/03/18 10:37:04;;;;;;;31.30;20.05;;;13.80;99.90;;;;;;5051817;28;20061;-65
2022/03/18 10:39:39;;;;;;;33.35;20.55;;;14.30;99.90;;;;;;5049226;28;20037;-66
2022/03/18 10:42:16;;;;;;;29.48;19.88;;;14.40;99.90;;;;;;5050517;28;20049;-66
2022/03/18 10:44:52;;;;;;;27.15;19.83;;;14.40;99.90;;;;;;5050057;28;20048;-66
2022/03/18 10:47:36;;;;;;;26.75;18.88;;;14.60;99.90;;;;;;5047197;28;20067;-66
2022/03/18 10:50:14;;;;;;;26.35;18.75;;;15.00;99.90;;;;;;5051331;28;20049;-66
2022/03/18 10:53:02;;;;;;;29.15;18.58;;;15.20;99.90;;;;;;5052177;28;20446;-65
2022/03/18 10:55:36;;;;;;;33.33;21.02;;;15.60;99.90;;;;;;5051867;28;20586;-66
2022/03/18 10:58:20;;;;;;;28.73;18.52;;;15.80;99.90;;;;;;5064996;28;20053;-66
2022/03/18 11:00:50;;;;;;;26.90;18.80;;;16.00;99.90;;;;;;5030086;28;20120;-65
2022/03/18 11:03:18;;;;;;;32.42;19.23;;;16.10;99.90;;;;;;5042701;28;20390;-65
2022/03/18 11:05:49;;;;;;;26.27;19.00;;;16.20;99.90;;;;;;5046401;28;20059;-65
2022/03/18 11:08:21;;;;;;;28.60;18.60;;;16.40;99.90;;;;;;5066440;28;20045;-66
2022/03/18 11:13:48;;;;;;;28.80;20.00;;;16.80;99.90;;;;;;5058021;28;20479;-66
2022/03/18 11:16:31;;;;;;;24.58;19.05;;;16.90;99.90;;;;;;5051948;28;20040;-66
2022/03/18 11:19:00;;;;;;;25.23;18.63;;;17.10;99.90;;;;;;5063699;28;20051;-64
2022/03/18 11:21:38;;;;;;;36.40;21.40;;;17.20;99.90;;;;;;5044602;28;20032;-65
2022/03/18 11:24:07;;;;;;;30.10;19.88;;;17.00;99.90;;;;;;5063472;28;20041;-64
2022/03/18 11:26:36;;;;;;;28.67;20.15;;;16.80;99.90;;;;;;5045113;28;20427;-66
2022/03/18 11:29:19;;;;;;;24.17;16.83;;;16.70;99.90;;;;;;5055087;28;20415;-66
2022/03/18 11:32:15;;;;;;;26.10;18.80;;;17.00;99.90;;;;;;5057008;28;20047;-66
2022/03/18 11:34:50;;;;;;;29.67;19.05;;;17.00;99.90;;;;;;5050577;28;20131;-64
2022/03/18 11:37:19;;;;;;;25.88;18.33;;;17.00;99.90;;;;;;5061474;28;20067;-66
2022/03/18 11:39:47;;;;;;;30.50;19.33;;;16.90;99.90;;;;;;5058325;28;20048;-66
2022/03/18 11:42:22;;;;;;;29.30;19.27;;;16.80;99.90;;;;;;5057653;28;20048;-65
2022/03/18 11:44:58;;;;;;;24.45;17.58;;;16.90;99.90;;;;;;5046356;28;20384;-65
2022/03/18 11:47:31;;;;;;;23.98;18.00;;;17.20;99.90;;;;;;5064909;28;20491;-65
2022/03/18 11:50:39;;;;;;;29.15;22.08;;;17.70;99.90;;;;;;5053542;28;20510;-64
2022/03/18 11:53:10;;;;;;;28.98;20.17;;;18.40;99.90;;;;;;5059679;28;20503;-66
2022/03/18 11:55:38;;;;;;;30.50;20.35;;;18.80;99.90;;;;;;5056172;28;20033;-65
2022/03/18 11:58:30;;;;;;;25.50;18.50;;;18.80;99.90;;;;;;5062811;28;20086;-65
2022/03/18 12:00:57;;;;;;;;;;;18.80;99.90;;;;;;5048520;28;20163;-65
2022/03/18 12:03:29;;;;;;;31.10;20.42;;;19.20;99.90;;;;;;5047110;28;20447;-64
2022/03/18 12:06:00;;;;;;;26.50;19.45;;;19.40;99.90;;;;;;5036093;28;20489;-64
2022/03/18 12:08:53;;;;;;;27.65;20.98;;;19.70;99.90;;;;;;5045464;28;20044;-65
2022/03/18 12:11:29;;;;;;;28.70;20.70;;;19.80;99.90;;;;;;5040978;28;20433;-65
2022/03/18 12:14:06;;;;;;;26.67;19.75;;;19.90;99.90;;;;;;5049418;28;20417;-65
2022/03/18 12:16:34;;;;;;;25.85;19.67;;;20.00;99.90;;;;;;5057435;28;20512;-65
2022/03/18 12:19:21;;;;;;;27.15;19.95;;;20.10;99.90;;;;;;5065765;28;20087;-65
2022/03/18 12:21:49;;;;;;;30.23;21.35;;;20.20;99.90;;;;;;5058704;28;20045;-66
2022/03/18 12:24:16;;;;;;;26.08;19.15;;;20.10;99.90;;;;;;5068392;28;20052;-66
2022/03/18 12:26:43;;;;;;;27.92;20.83;;;19.90;99.90;;;;;;5069674;28;20044;-65
2022/03/18 12:29:18;;;;;;;26.33;20.83;;;19.50;99.90;;;;;;5068495;28;20048;-65
2022/03/18 12:31:46;;;;;;;26.65;20.92;;;19.10;99.90;;;;;;5052133;28;20064;-65
2022/03/18 12:34:15;;;;;;;27.48;21.77;;;19.10;99.90;;;;;;5067627;28;20049;-64
2022/03/18 12:36:44;;;;;;;26.67;19.92;;;19.10;99.90;;;;;;5036516;28;20040;-66
2022/03/18 12:39:13;;;;;;;30.48;21.92;;;19.30;99.90;;;;;;5056861;28;20132;-66
2022/03/18 12:41:43;;;;;;;27.98;20.90;;;19.20;99.90;;;;;;5056854;28;20036;-66
2022/03/18 12:44:32;;;;;;;26.95;19.45;;;19.70;99.90;;;;;;5057668;28;20124;-65
2022/03/18 12:47:01;;;;;;;27.63;21.15;;;20.30;99.90;;;;;;5058954;28;20045;-66
2022/03/18 12:49:35;;;;;;;30.17;21.20;;;20.60;99.90;;;;;;5060303;28;20494;-65
2022/03/18 12:52:11;;;;;;;28.50;20.60;;;20.90;99.90;;;;;;5057200;28;20100;-66
2022/03/18 12:54:39;;;;;;;29.98;22.15;;;21.20;99.80;;;;;;5054901;28;20075;-66
2022/03/18 12:57:16;;;;;;;30.90;21.75;;;21.30;99.10;;;;;;5042871;28;20106;-65
2022/03/18 12:59:44;;;;;;;25.83;20.77;;;21.30;98.80;;;;;;5050410;28;20048;-66
2022/03/18 13:02:34;;;;;;;31.27;22.63;;;21.30;98.90;;;;;;5041982;28;20378;-65
2022/03/18 13:05:05;;;;;;;27.35;22.65;;;21.30;98.00;;;;;;5044057;28;20068;-66